Time;durP1;ratioP1;P1;durP2;ratioP2;P2;SDS_P1;SDS_P2;PMS_P1;PMS_P2;Temp;Humidity;BMP_temperature;BMP_pressure;BME280_temperature;BME280_humidity;BME280_pressure;Samples;Min_cycle;Max_cycle;Signal;HPM_P1;HPM_P2
2022/04/15 00:01:43;;;;;;;;;;;19.20;99.90;;;;;;4878516;29;19980;-75
2022/04/15 00:04:10;;;;;;;;;;;19.20;99.90;;;;;;4879002;29;19988;-75
2022/04/15 00:06:37;;;;;;;;;;;19.30;99.90;;;;;;4879296;29;20390;-75
2022/04/15 00:09:03;;;;;;;;;;;19.30;99.90;;;;;;4879306;29;19912;-75
2022/04/15 00:11:31;;;;;;;;;;;19.30;99.90;;;;;;4879133;29;19916;-75
2022/04/15 00:13:58;;;;;;;;;;;19.40;99.90;;;;;;4879169;29;19962;-75
2022/04/15 00:16:24;;;;;;;;;;;19.50;99.90;;;;;;4879157;29;19923;-75
2022/04/15 00:18:51;;;;;;;;;;;19.50;99.90;;;;;;4878988;29;19999;-75
2022/04/15 00:21:18;;;;;;;;;;;19.60;99.90;;;;;;4879082;29;19924;-75
2022/04/15 00:23:44;;;;;;;;;;;19.60;99.90;;;;;;4878808;29;19916;-75
2022/04/15 00:26:11;;;;;;;;;;;19.70;99.90;;;;;;4879090;29;19940;-75
2022/04/15 00:28:38;;;;;;;;;;;19.70;99.90;;;;;;4879973;29;19990;-75
2022/04/15 00:31:04;;;;;;;;;;;19.80;99.90;;;;;;4882587;29;20013;-75
2022/04/15 00:33:31;;;;;;;;;;;19.80;99.90;;;;;;4881978;29;19912;-75
2022/04/15 00:35:58;;;;;;;;;;;20.00;99.90;;;;;;4867008;29;20397;-75
2022/04/15 00:38:24;;;;;;;;;;;20.10;99.90;;;;;;4863494;29;19917;-75
2022/04/15 00:40:51;;;;;;;;;;;20.10;99.90;;;;;;4873995;29;19919;-75
2022/04/15 00:43:18;;;;;;;;;;;20.10;99.90;;;;;;4882570;29;19923;-75
2022/04/15 00:45:44;;;;;;;;;;;20.10;99.90;;;;;;4882109;29;19923;-76
2022/04/15 00:48:11;;;;;;;;;;;20.10;99.90;;;;;;4882166;29;19940;-75
2022/04/15 00:50:39;;;;;;;;;;;20.10;99.90;;;;;;4881514;29;20244;-75
2022/04/15 00:53:10;;;;;;;;;;;20.20;99.90;;;;;;4881091;29;19911;-77
2022/04/15 00:55:37;;;;;;;;;;;20.20;99.90;;;;;;4864648;29;20371;-76
2022/04/15 00:58:04;;;;;;;;;;;20.30;99.90;;;;;;4881536;29;19916;-76
2022/04/15 01:00:35;;;;;;;;;;;20.40;99.90;;;;;;4881805;29;20286;-75
2022/04/15 01:03:02;;;;;;;;;;;20.60;99.90;;;;;;4881631;29;19927;-75
2022/04/15 01:05:29;;;;;;;;;;;20.70;99.90;;;;;;4881348;29;20356;-75
2022/04/15 01:07:56;;;;;;;;;;;20.70;99.90;;;;;;4881580;29;19931;-76
2022/04/15 01:10:24;;;;;;;;;;;20.80;99.90;;;;;;4881323;29;19962;-76
2022/04/15 01:12:53;;;;;;;;;;;21.20;99.90;;;;;;4881994;29;20363;-75
2022/04/15 01:15:21;;;;;;;;;;;21.80;99.90;;;;;;4881638;29;20007;-75
2022/04/15 01:17:48;;;;;;;;;;;22.40;99.90;;;;;;4881324;29;20375;-75
2022/04/15 01:20:14;;;;;;;;;;;22.60;99.90;;;;;;4881075;29;20484;-76
2022/04/15 01:22:41;;;;;;;;;;;22.20;99.90;;;;;;4881618;29;19999;-75
2022/04/15 01:25:09;;;;;;;;;;;21.90;99.90;;;;;;4881267;29;19919;-75
2022/04/15 01:27:37;;;;;;;;;;;22.00;99.90;;;;;;4881164;29;19919;-75
2022/04/15 01:30:05;;;;;;;;;;;22.30;99.90;;;;;;4881349;29;19919;-75
2022/04/15 01:32:31;;;;;;;;;;;22.40;99.90;;;;;;4881026;29;19911;-76
2022/04/15 01:34:58;;;;;;;;;;;22.50;99.90;;;;;;4880229;29;19919;-75
2022/04/15 01:37:25;;;;;;;;;;;22.40;99.90;;;;;;4881582;29;20008;-76
2022/04/15 01:39:52;;;;;;;;;;;22.30;99.90;;;;;;4880266;29;19919;-76
2022/04/15 01:42:18;;;;;;;;;;;22.00;99.90;;;;;;4881199;29;19920;-76
2022/04/15 01:44:45;;;;;;;;;;;21.80;99.90;;;;;;4880650;29;19912;-76
2022/04/15 01:47:12;;;;;;;;;;;21.90;99.90;;;;;;4879708;29;19984;-76
2022/04/15 01:49:38;;;;;;;;;;;21.90;99.90;;;;;;4880055;29;19999;-77
2022/04/15 01:52:06;;;;;;;;;;;21.90;99.90;;;;;;4880957;29;20379;-76
2022/04/15 01:54:32;;;;;;;;;;;22.00;99.90;;;;;;4880689;29;20272;-75
2022/04/15 01:56:59;;;;;;;;;;;22.10;99.90;;;;;;4880552;29;19912;-76
2022/04/15 01:59:26;;;;;;;;;;;22.00;99.90;;;;;;4881012;29;20496;-76
2022/04/15 02:01:56;;;;;;;;;;;21.90;99.90;;;;;;4879039;29;19923;-76
2022/04/15 02:04:23;;;;;;;;;;;21.80;99.90;;;;;;4879785;29;19924;-76
2022/04/15 02:06:50;;;;;;;;;;;21.80;99.90;;;;;;4879633;29;20264;-75
2022/04/15 02:09:16;;;;;;;;;;;21.60;99.90;;;;;;4880149;29;19999;-75
2022/04/15 02:11:43;;;;;;;;;;;21.70;99.90;;;;;;4879955;29;19911;-75
2022/04/15 02:14:10;;;;;;;;;;;21.70;99.90;;;;;;4887012;29;20349;-75
2022/04/15 02:16:41;;;;;;;;;;;21.60;99.90;;;;;;4888099;29;20210;-75
2022/04/15 02:19:08;;;;;;;;;;;21.60;99.90;;;;;;4888157;29;19923;-75
2022/04/15 02:21:35;;;;;;;;;;;21.70;99.90;;;;;;4892308;29;19927;-75
2022/04/15 02:24:01;;;;;;;;;;;22.00;99.90;;;;;;4898750;29;20291;-75
2022/04/15 02:26:28;;;;;;;;;;;22.00;99.90;;;;;;4888391;29;20257;-75
2022/04/15 02:28:55;;;;;;;;;;;21.80;99.90;;;;;;4881975;29;19916;-76
2022/04/15 02:31:21;;;;;;;;;;;22.10;99.90;;;;;;4880207;29;19960;-76
2022/04/15 02:33:48;;;;;;;;;;;22.00;99.90;;;;;;4880207;29;19951;-76
2022/04/15 02:36:16;;;;;;;;;;;21.90;99.90;;;;;;4879861;29;19916;-76
2022/04/15 02:38:43;;;;;;;;;;;21.90;99.90;;;;;;4880229;29;19916;-76
2022/04/15 02:41:10;;;;;;;;;;;22.10;99.90;;;;;;4880050;29;20012;-75
2022/04/15 02:43:38;;;;;;;;;;;22.20;99.90;;;;;;4880145;29;19911;-77
2022/04/15 02:46:06;;;;;;;;;;;22.10;99.90;;;;;;4879711;29;20370;-75
2022/04/15 02:48:33;;;;;;;;;;;22.00;99.90;;;;;;4862309;29;20006;-76
2022/04/15 02:51:00;;;;;;;;;;;21.90;99.90;;;;;;4885684;29;20469;-76
2022/04/15 02:53:27;;;;;;;;;;;21.90;99.90;;;;;;4893293;29;20336;-77
2022/04/15 02:55:53;;;;;;;;;;;22.10;99.90;;;;;;4897842;29;19911;-77
2022/04/15 02:58:20;;;;;;;;;;;22.20;99.90;;;;;;4898602;29;19911;-76
2022/04/15 03:00:47;;;;;;;;;;;22.30;99.90;;;;;;4898632;29;19919;-76
2022/04/15 03:03:14;;;;;;;;;;;22.30;99.90;;;;;;4897681;29;20303;-77
2022/04/15 03:05:41;;;;;;;;;;;22.30;99.90;;;;;;4897676;29;19916;-76
2022/04/15 03:08:08;;;;;;;;;;;22.20;99.90;;;;;;4898205;29;19919;-76
2022/04/15 03:10:35;;;;;;;;;;;22.20;99.90;;;;;;4898418;29;19922;-76
2022/04/15 03:13:01;;;;;;;;;;;22.40;99.90;;;;;;4898366;29;19911;-77
2022/04/15 03:15:28;;;;;;;;;;;22.50;99.90;;;;;;4881379;29;19912;-76
2022/04/15 03:17:55;;;;;;;;;;;22.40;99.90;;;;;;4881368;29;19911;-76
2022/04/15 03:20:22;;;;;;;;;;;22.30;99.90;;;;;;4897133;29;20004;-75
2022/04/15 03:22:48;;;;;;;;;;;22.20;99.90;;;;;;4898160;29;19946;-75
2022/04/15 03:25:19;;;;;;;;;;;22.10;99.90;;;;;;4898021;29;19961;-75
2022/04/15 03:27:46;;;;;;;;;;;22.00;99.90;;;;;;4897609;29;19998;-76
2022/04/15 03:30:14;;;;;;;;;;;22.00;99.90;;;;;;4898132;29;20374;-76
2022/04/15 03:32:51;;;;;;;;;;;22.00;99.90;;;;;;4889265;29;20006;-75
2022/04/15 03:35:20;;;;;;;;;;;22.00;99.90;;;;;;4868325;29;19945;-76
2022/04/15 03:37:50;;;;;;;;;;;22.00;99.90;;;;;;4859963;29;20328;-75
2022/04/15 03:40:17;;;;;;;;;;;21.90;99.90;;;;;;4860080;29;19912;-76
2022/04/15 03:42:47;;;;;;;;;;;21.80;99.90;;;;;;4860339;29;19916;-75
2022/04/15 03:45:18;;;;;;;;;;;21.70;99.90;;;;;;4859782;29;20508;-75
2022/04/15 03:47:45;;;;;;;;;;;21.70;99.90;;;;;;4859925;29;20271;-75
2022/04/15 03:50:12;;;;;;;;;;;21.80;99.90;;;;;;4860029;29;20362;-75
2022/04/15 03:52:42;;;;;;;;;;;21.90;99.90;;;;;;4860086;29;19912;-75
2022/04/15 03:55:10;;;;;;;;;;;21.90;99.90;;;;;;4859981;29;19944;-75
2022/04/15 03:57:37;;;;;;;;;;;21.90;99.90;;;;;;4859643;29;19935;-75
2022/04/15 04:00:05;;;;;;;;;;;22.00;99.90;;;;;;4860118;29;20360;-75
2022/04/15 04:02:32;;;;;;;;;;;21.90;99.90;;;;;;4859574;29;19924;-75
2022/04/15 04:04:59;;;;;;;;;;;21.90;99.90;;;;;;4863017;29;19916;-75
2022/04/15 04:07:25;;;;;;;;;;;21.80;99.90;;;;;;4846995;29;20344;-75
2022/04/15 04:09:52;;;;;;;;;;;21.60;99.90;;;;;;4863396;29;20413;-76
2022/04/15 04:12:19;;;;;;;;;;;21.50;99.90;;;;;;4863653;29;19919;-76
2022/04/15 04:14:45;;;;;;;;;;;21.40;99.90;;;;;;4863406;29;19968;-75
2022/04/15 04:17:12;;;;;;;;;;;21.40;99.90;;;;;;4863381;29;19912;-76
2022/04/15 04:19:39;;;;;;;;;;;21.40;99.90;;;;;;4863260;29;19912;-75
2022/04/15 04:22:05;;;;;;;;;;;21.40;99.90;;;;;;4894525;29;20419;-75
2022/04/15 04:24:32;;;;;;;;;;;21.30;99.90;;;;;;4900405;29;19994;-75
2022/04/15 04:26:58;;;;;;;;;;;21.20;99.90;;;;;;4900409;29;19947;-75
2022/04/15 04:29:25;;;;;;;;;;;21.20;99.90;;;;;;4900463;29;20275;-75
2022/04/15 04:31:52;;;;;;;;;;;21.20;99.90;;;;;;4900279;29;19918;-76
2022/04/15 04:34:19;;;;;;;;;;;21.10;99.90;;;;;;4883493;29;19918;-76
2022/04/15 04:36:45;;;;;;;;;;;21.10;99.90;;;;;;4900355;29;19912;-75
2022/04/15 04:39:12;;;;;;;;;;;21.30;99.90;;;;;;4900431;29;19912;-75
2022/04/15 04:41:39;;;;;;;;;;;21.40;99.90;;;;;;4899411;29;19955;-76
2022/04/15 04:44:06;;;;;;;;;;;21.50;99.90;;;;;;4900107;29;19977;-76
2022/04/15 04:46:33;;;;;;;;;;;21.50;99.90;;;;;;4900212;29;20375;-76
2022/04/15 04:49:00;;;;;;;;;;;21.40;99.90;;;;;;4900429;29;19911;-75
2022/04/15 04:51:27;;;;;;;;;;;21.30;99.90;;;;;;4900322;29;19939;-75
2022/04/15 04:53:53;;;;;;;;;;;21.20;99.90;;;;;;4899819;29;19912;-75
2022/04/15 04:56:20;;;;;;;;;;;21.20;99.90;;;;;;4900160;29;19918;-76
2022/04/15 04:58:46;;;;;;;;;;;21.10;99.90;;;;;;4900189;29;19915;-76
2022/04/15 05:01:13;;;;;;;;;;;21.20;99.90;;;;;;4899927;29;20447;-76
2022/04/15 05:03:40;;;;;;;;;;;21.30;99.90;;;;;;4899865;29;19923;-75
2022/04/15 05:06:06;;;;;;;;;;;21.40;99.90;;;;;;4899918;29;20002;-76
2022/04/15 05:08:33;;;;;;;;;;;21.40;99.90;;;;;;4899931;29;19918;-75
2022/04/15 05:11:00;;;;;;;;;;;21.40;99.90;;;;;;4899003;29;20029;-76
2022/04/15 05:13:26;;;;;;;;;;;21.40;99.90;;;;;;4899592;29;19920;-75
2022/04/15 05:15:53;;;;;;;;;;;21.40;99.90;;;;;;4899113;29;19939;-75
2022/04/15 05:18:20;;;;;;;;;;;21.30;99.90;;;;;;4899327;29;19918;-75
2022/04/15 05:20:46;;;;;;;;;;;21.20;99.90;;;;;;4899629;29;19926;-75
2022/04/15 05:23:13;;;;;;;;;;;21.20;99.90;;;;;;4899644;29;19940;-75
2022/04/15 05:25:40;;;;;;;;;;;21.10;99.90;;;;;;4898956;29;19912;-76
2022/04/15 05:28:06;;;;;;;;;;;21.00;99.90;;;;;;4898901;29;19958;-76
2022/04/15 05:30:33;;;;;;;;;;;21.00;99.90;;;;;;4899674;29;19948;-76
2022/04/15 05:33:00;;;;;;;;;;;20.90;99.90;;;;;;4899544;29;19954;-76
2022/04/15 05:35:26;;;;;;;;;;;20.90;99.90;;;;;;4882546;29;19916;-76
2022/04/15 05:37:53;;;;;;;;;;;20.80;99.90;;;;;;4898395;29;20437;-76
2022/04/15 05:40:21;;;;;;;;;;;21.00;99.90;;;;;;4898307;29;20319;-75
2022/04/15 05:42:48;;;;;;;;;;;21.00;99.90;;;;;;4898384;29;20002;-76
2022/04/15 05:45:15;;;;;;;;;;;21.00;99.90;;;;;;4899170;29;19922;-76
2022/04/15 05:47:42;;;;;;;;;;;20.90;99.90;;;;;;4898961;29;19911;-77
2022/04/15 05:50:09;;;;;;;;;;;21.00;99.90;;;;;;4899276;29;20311;-77
2022/04/15 05:52:35;;;;;;;;;;;21.10;99.90;;;;;;4898838;29;19967;-76
2022/04/15 05:55:02;;;;;;;;;;;21.10;99.90;;;;;;4898668;29;19911;-76
2022/04/15 05:57:28;;;;;;;;;;;21.10;99.90;;;;;;4898667;29;19927;-76
2022/04/15 05:59:55;;;;;;;;;;;21.10;99.90;;;;;;4898382;29;19911;-76
2022/04/15 06:02:24;;;;;;;;;;;21.20;99.90;;;;;;4898066;29;19924;-76
2022/04/15 06:04:51;;;;;;;;;;;21.10;99.90;;;;;;4898763;29;19980;-76
2022/04/15 06:07:17;;;;;;;;;;;21.10;99.90;;;;;;4898443;29;19967;-75
2022/04/15 06:09:44;;;;;;;;;;;21.00;99.90;;;;;;4898348;29;20318;-76
2022/04/15 06:12:11;;;;;;;;;;;21.00;99.90;;;;;;4865136;29;20349;-75
2022/04/15 06:14:37;;;;;;;;;;;20.80;99.90;;;;;;4861175;29;19913;-76
2022/04/15 06:17:04;;;;;;;;;;;20.80;99.90;;;;;;4862184;29;19916;-75
2022/04/15 06:19:31;;;;;;;;;;;20.70;99.90;;;;;;4862056;29;20272;-76
2022/04/15 06:21:57;;;;;;;;;;;20.60;99.90;;;;;;4861975;29;19920;-75
2022/04/15 06:24:24;;;;;;;;;;;20.60;99.90;;;;;;4862029;29;19932;-75
2022/04/15 06:26:51;;;;;;;;;;;20.60;99.90;;;;;;4861573;29;20386;-75
2022/04/15 06:29:18;;;;;;;;;;;20.60;99.90;;;;;;4861500;29;20011;-76
2022/04/15 06:31:45;;;;;;;;;;;20.50;99.90;;;;;;4861771;29;20363;-76
2022/04/15 06:34:45;;;;;;;;;;;20.50;99.90;;;;;;4862016;29;19916;-75
2022/04/15 06:37:12;;;;;;;;;;;20.40;99.90;;;;;;4861811;29;20432;-75
2022/04/15 06:39:51;;;;;;;;;;;20.40;99.90;;;;;;4861567;29;19951;-76
2022/04/15 06:42:22;;;;;;;;;;;20.50;99.90;;;;;;4860215;29;19924;-74
2022/04/15 06:44:49;;;;;;;;;;;20.40;99.90;;;;;;4861604;29;19912;-74
2022/04/15 06:47:16;;;;;;;;;;;20.40;99.90;;;;;;4861625;29;20010;-75
2022/04/15 06:49:45;;;;;;;;;;;20.40;99.90;;;;;;4861501;29;20007;-74
2022/04/15 06:52:12;;;;;;;;;;;20.30;99.90;;;;;;4859291;29;19959;-74
2022/04/15 06:54:39;;;;;;;;;;;20.30;99.90;;;;;;4859527;29;19920;-74
2022/04/15 06:57:06;;;;;;;;;;;20.30;99.90;;;;;;4859324;29;20428;-74
2022/04/15 06:59:32;;;;;;;;;;;20.20;99.90;;;;;;4859228;29;19923;-74
2022/04/15 07:02:01;;;;;;;;;;;20.30;99.90;;;;;;4859069;29;19975;-74
2022/04/15 07:04:28;;;;;;;;;;;20.20;99.90;;;;;;4859062;29;19924;-74
2022/04/15 07:06:57;;;;;;;;;;;20.30;99.90;;;;;;4859503;29;19920;-74
2022/04/15 07:09:24;;;;;;;;;;;20.20;99.90;;;;;;4859207;29;20539;-73
2022/04/15 07:11:51;;;;;;;;;;;20.20;99.90;;;;;;4858963;29;20006;-74
2022/04/15 07:14:18;;;;;;;;;;;20.20;99.90;;;;;;4858583;29;19923;-74
2022/04/15 07:16:45;;;;;;;;;;;20.10;99.90;;;;;;4857321;29;19958;-74
2022/04/15 07:19:12;;;;;;;;;;;20.10;99.90;;;;;;4858879;29;19935;-74
2022/04/15 07:21:39;;;;;;;;;;;20.00;99.90;;;;;;4858572;29;19920;-75
2022/04/15 07:24:06;;;;;;;;;;;20.00;99.90;;;;;;4859410;29;20020;-75
2022/04/15 07:26:32;;;;;;;;;;;20.00;99.90;;;;;;4858940;29;19919;-75
2022/04/15 07:28:59;;;;;;;;;;;19.90;99.90;;;;;;4858369;29;19919;-76
2022/04/15 07:31:26;;;;;;;;;;;19.90;99.90;;;;;;4858497;29;19913;-75
2022/04/15 07:33:52;;;;;;;;;;;19.90;99.90;;;;;;4858624;29;20036;-76
2022/04/15 07:36:42;;;;;;;;;;;19.80;99.90;;;;;;4858895;29;20435;-75
2022/04/15 07:39:09;;;;;;;;;;;19.80;99.90;;;;;;4857827;29;19995;-75
2022/04/15 07:41:37;;;;;;;;;;;19.80;99.90;;;;;;4858622;29;19920;-75
2022/04/15 07:44:13;;;;;;;;;;;19.80;99.90;;;;;;4858505;29;19916;-75
2022/04/15 07:46:41;;;;;;;;;;;19.70;99.90;;;;;;4865574;29;19923;-75
2022/04/15 07:49:08;;;;;;;;;;;19.70;99.90;;;;;;4886994;29;19923;-75
2022/04/15 07:51:35;;;;;;;;;;;19.70;99.90;;;;;;4885300;29;20006;-75
2022/04/15 07:54:03;;;;;;;;;;;19.70;99.90;;;;;;4885482;29;19911;-75
2022/04/15 07:56:30;;;;;;;;;;;19.60;99.90;;;;;;4886306;29;19911;-76
2022/04/15 07:58:56;;;;;;;;;;;19.60;99.90;;;;;;4885252;29;19968;-75
2022/04/15 08:01:27;;;;;;;;;;;19.60;99.90;;;;;;4885408;29;20050;-76
2022/04/15 08:03:55;;;;;;;;;;;19.60;99.90;;;;;;4882450;29;20292;-75
2022/04/15 08:06:22;;;;;;;;;;;19.60;99.90;;;;;;4869164;29;19911;-75
2022/04/15 08:08:49;;;;;;;;;;;19.50;99.90;;;;;;4884659;29;19927;-75
2022/04/15 08:11:16;;;;;;;;;;;19.50;99.90;;;;;;4895034;29;19916;-75
2022/04/15 08:13:43;;;;;;;;;;;19.50;99.90;;;;;;4894728;29;19922;-75
2022/04/15 08:16:11;;;;;;;;;;;19.50;99.90;;;;;;4895556;29;19912;-75
2022/04/15 08:18:38;;;;;;;;;;;19.50;99.90;;;;;;4889541;29;19915;-77
2022/04/15 08:21:05;;;;;;;;;;;19.50;99.90;;;;;;4885426;29;19976;-75
2022/04/15 08:23:32;;;;;;;;;;;19.40;99.90;;;;;;4892601;29;19954;-75
2022/04/15 08:25:58;;;;;;;;;;;19.40;99.90;;;;;;4895542;29;19922;-75
2022/04/15 08:28:25;;;;;;;;;;;19.40;99.90;;;;;;4893779;29;20351;-75
2022/04/15 08:30:51;;;;;;;;;;;19.40;99.90;;;;;;4895075;29;19912;-75
2022/04/15 08:33:18;;;;;;;;;;;19.40;99.90;;;;;;4895623;29;19912;-75
2022/04/15 08:35:46;;;;;;;;;;;19.30;99.90;;;;;;4895140;29;19915;-75
2022/04/15 08:38:13;;;;;;;;;;;19.30;99.90;;;;;;4895715;29;19919;-75
2022/04/15 08:40:43;;;;;;;;;;;19.40;99.90;;;;;;4895039;29;19918;-75
2022/04/15 08:43:10;;;;;;;;;;;19.30;99.90;;;;;;4895215;29;19963;-75
2022/04/15 08:45:39;;;;;;;;;;;19.30;99.90;;;;;;4889336;29;20007;-76
2022/04/15 08:48:06;;;;;;;;;;;19.30;99.90;;;;;;4883770;29;19915;-76
2022/04/15 08:50:33;;;;;;;;;;;19.30;99.90;;;;;;4881562;29;19959;-75
2022/04/15 08:53:00;;;;;;;;;;;19.30;99.90;;;;;;4879646;29;19912;-76
2022/04/15 08:55:28;;;;;;;;;;;19.30;99.90;;;;;;4880226;29;19911;-75
2022/04/15 08:57:55;;;;;;;;;;;19.30;99.90;;;;;;4879702;29;20336;-75
2022/04/15 09:00:23;;;;;;;;;;;19.20;99.90;;;;;;4880142;29;19911;-76
2022/04/15 09:02:53;;;;;;;;;;;19.30;99.90;;;;;;4879790;29;19931;-76
2022/04/15 09:05:21;;;;;;;;;;;19.20;99.90;;;;;;4880679;29;19912;-75
2022/04/15 09:07:48;;;;;;;;;;;19.30;99.90;;;;;;4881697;29;19919;-76
2022/04/15 09:10:16;;;;;;;;;;;19.30;99.90;;;;;;4881842;29;19922;-76
2022/04/15 09:12:45;;;;;;;;;;;19.20;99.90;;;;;;4880349;29;19912;-76
2022/04/15 09:15:13;;;;;;;;;;;19.20;99.90;;;;;;4881204;29;19962;-76
2022/04/15 09:17:40;;;;;;;;;;;19.20;99.90;;;;;;4881654;29;19912;-76
2022/04/15 09:20:09;;;;;;;;;;;19.20;99.90;;;;;;4865207;29;19912;-75
2022/04/15 09:22:36;;;;;;;;;;;19.20;99.90;;;;;;4881032;29;19963;-75
2022/04/15 09:25:04;;;;;;;;;;;19.20;99.90;;;;;;4881586;29;19916;-74
2022/04/15 09:27:30;;;;;;;;;;;19.20;99.90;;;;;;4880825;29;19912;-75
2022/04/15 09:29:57;;;;;;;;;;;19.20;99.90;;;;;;4869636;29;19912;-76
2022/04/15 09:32:24;;;;;;;;;;;19.20;99.90;;;;;;4860902;29;20394;-76
2022/04/15 09:35:01;;;;;;;;;;;19.20;99.90;;;;;;4862564;29;19959;-75
2022/04/15 09:37:32;;;;;;;;;;;19.20;99.90;;;;;;4862897;29;20418;-75
2022/04/15 09:40:14;;;;;;;;;;;19.10;99.90;;;;;;4862856;29;19940;-76
2022/04/15 09:42:45;;;;;;;;;;;19.10;99.90;;;;;;4861934;29;19927;-75
2022/04/15 09:45:13;;;;;;;;;;;19.10;99.90;;;;;;4860744;29;19912;-75
2022/04/15 09:47:40;;;;;;;;;;;19.10;99.90;;;;;;4860674;29;19912;-76
2022/04/15 09:50:07;;;;;;;;;;;19.10;99.90;;;;;;4861058;29;19916;-75
2022/04/15 09:52:34;;;;;;;;;;;19.10;99.90;;;;;;4861187;29;19967;-75
2022/04/15 09:55:02;;;;;;;;;;;19.10;99.90;;;;;;4860143;29;19940;-75
2022/04/15 09:57:34;;;;;;;;;;;19.10;99.90;;;;;;4878663;29;20244;-75
2022/04/15 10:00:03;;;;;;;;;;;19.10;99.90;;;;;;4878083;29;19912;-75
2022/04/15 10:02:33;;;;;;;;;;;19.00;99.90;;;;;;4877726;29;19927;-76
2022/04/15 10:05:00;;;;;;;;;;;19.00;99.90;;;;;;4878974;29;19958;-76
2022/04/15 10:07:26;;;;;;;;;;;19.10;99.90;;;;;;4878996;29;19935;-75
2022/04/15 10:09:54;;;;;;;;;;;19.00;99.90;;;;;;4877986;29;19912;-76
2022/04/15 10:12:21;;;;;;;;;;;19.00;99.90;;;;;;4878484;29;19940;-75
2022/04/15 10:14:48;;;;;;;;;;;18.90;99.90;;;;;;4878726;29;19952;-76
2022/04/15 10:17:17;;;;;;;;;;;19.00;99.90;;;;;;4878364;29;20502;-76
2022/04/15 10:19:44;;;;;;;;;;;19.00;99.90;;;;;;4878265;29;19919;-75
2022/04/15 10:22:14;;;;;;;;;;;18.90;99.90;;;;;;4878681;29;20300;-75
2022/04/15 10:24:41;;;;;;;;;;;18.90;99.90;;;;;;4861041;29;19962;-75
2022/04/15 10:27:11;;;;;;;;;;;18.90;99.90;;;;;;4878369;29;19912;-76
2022/04/15 10:29:38;;;;;;;;;;;18.90;99.90;;;;;;4878018;29;19919;-76
2022/04/15 10:32:12;;;;;;;;;;;18.90;99.90;;;;;;4878488;29;19916;-75
2022/04/15 10:34:48;;;;;;;;;;;18.90;99.90;;;;;;4878199;29;20036;-76
2022/04/15 10:37:15;;;;;;;;;;;18.90;99.90;;;;;;4877808;29;19915;-76
2022/04/15 10:39:50;;;;;;;;;;;18.90;99.90;;;;;;4877629;29;19919;-76
2022/04/15 10:42:20;;;;;;;;;;;18.90;99.90;;;;;;4878260;29;20423;-76
2022/04/15 10:44:47;;;;;;;;;;;18.90;99.90;;;;;;4878144;29;20367;-76
2022/04/15 10:47:22;;;;;;;;;;;18.90;99.90;;;;;;4878207;29;19935;-76
2022/04/15 10:50:03;;;;;;;;;;;18.80;99.90;;;;;;4878045;29;19912;-76
2022/04/15 10:52:30;;;;;;;;;;;18.80;99.90;;;;;;4878093;29;19960;-75
2022/04/15 10:54:57;;;;;;;;;;;18.80;99.90;;;;;;4877397;29;19919;-75
2022/04/15 10:57:30;;;;;;;;;;;18.70;99.90;;;;;;4878049;29;19912;-75
2022/04/15 11:02:44;;;;;;;;;;;18.70;99.90;;;;;;4877733;29;19931;-75
2022/04/15 11:05:12;;;;;;;;;;;18.70;99.90;;;;;;4877272;29;19984;-75
2022/04/15 11:07:48;;;;;;;;;;;18.60;99.90;;;;;;4877651;29;19915;-75
2022/04/15 11:10:37;;;;;;;;;;;18.60;99.90;;;;;;4877207;29;19975;-75
2022/04/15 11:13:04;;;;;;;;;;;18.60;99.90;;;;;;4877314;29;19919;-75
2022/04/15 11:15:49;;;;;;;;;;;18.60;99.90;;;;;;4877262;29;19944;-75
2022/04/15 11:18:16;;;;;;;;;;;18.60;99.90;;;;;;4877141;29;19912;-75
2022/04/15 11:20:44;;;;;;;;;;;18.60;99.90;;;;;;4877699;29;20264;-75
2022/04/15 11:23:12;;;;;;;;;;;18.60;99.90;;;;;;4877570;29;20295;-75
2022/04/15 11:25:42;;;;;;;;;;;18.60;99.90;;;;;;4876639;29;20356;-75
2022/04/15 11:28:09;;;;;;;;;;;18.60;99.90;;;;;;4877168;29;19919;-75
2022/04/15 11:30:36;;;;;;;;;;;18.60;99.90;;;;;;4876806;29;19912;-75
2022/04/15 11:33:06;;;;;;;;;;;18.60;99.90;;;;;;4877505;29;19912;-75
2022/04/15 11:35:34;;;;;;;;;;;18.50;99.90;;;;;;4877347;29;19912;-75
2022/04/15 11:38:03;;;;;;;;;;;18.60;99.90;;;;;;4877302;29;19919;-75
2022/04/15 11:40:36;;;;;;;;;;;18.60;99.90;;;;;;4877351;29;20405;-75
2022/04/15 11:43:07;;;;;;;;;;;18.50;99.90;;;;;;4877096;29;19920;-75
2022/04/15 11:45:37;;;;;;;;;;;18.50;99.90;;;;;;4877260;29;19916;-76
2022/04/15 11:48:23;;;;;;;;;;;18.50;99.90;;;;;;4877447;29;19916;-75
2022/04/15 11:50:51;;;;;;;;;;;18.50;99.90;;;;;;4877134;29;19915;-75
2022/04/15 11:53:18;;;;;;;;;;;18.50;99.90;;;;;;4876979;29;19922;-75
2022/04/15 11:55:48;;;;;;;;;;;18.50;99.90;;;;;;4876810;29;19920;-75
2022/04/15 11:58:15;;;;;;;;;;;18.50;99.90;;;;;;4877087;29;19923;-75
2022/04/15 12:00:42;;;;;;;;;;;18.50;99.90;;;;;;4860113;29;19912;-76
2022/04/15 12:03:11;;;;;;;;;;;18.50;99.90;;;;;;4858746;29;19975;-76
2022/04/15 12:05:38;;;;;;;;;;;18.40;99.90;;;;;;4858506;29;19916;-75
2022/04/15 12:08:10;;;;;;;;;;;18.50;99.90;;;;;;4858828;29;19920;-75
2022/04/15 12:10:38;;;;;;;;;;;18.50;99.90;;;;;;4857879;29;20412;-75
2022/04/15 12:13:11;;;;;;;;;;;18.50;99.90;;;;;;4858607;29;20388;-76
2022/04/15 12:15:38;;;;;;;;;;;18.40;99.90;;;;;;4858457;29;19916;-75
2022/04/15 12:18:06;;;;;;;;;;;18.40;99.90;;;;;;4858857;29;19916;-75
2022/04/15 12:20:36;;;;;;;;;;;18.30;99.90;;;;;;4858824;29;19971;-75
2022/04/15 12:23:03;;;;;;;;;;;18.40;99.90;;;;;;4858540;29;20019;-75
2022/04/15 12:31:27;;;;;;;;;;;18.30;99.90;;;;;;4822808;29;20452;-75
2022/04/15 12:33:53;;;;;;;;;;;18.20;99.90;;;;;;4822572;29;19993;-75
2022/04/15 12:36:20;;;;;;;;;;;18.20;99.90;;;;;;4842669;29;20439;-75
2022/04/15 12:38:59;;;;;;;;;;;18.10;99.90;;;;;;4861303;29;19924;-75
2022/04/15 12:41:37;;;;;;;;;;;18.10;99.90;;;;;;4861615;29;19943;-75
2022/04/15 12:44:14;;;;;;;;;;;18.10;99.90;;;;;;4861854;29;19913;-75
2022/04/15 12:46:43;;;;;;;;;;;18.10;99.90;;;;;;4861846;29;19912;-75
2022/04/15 12:49:22;;;;;;;;;;;18.10;99.90;;;;;;4861244;29;20376;-75
2022/04/15 12:51:49;;;;;;;;;;;18.10;99.90;;;;;;4861453;29;19935;-75
2022/04/15 12:54:15;;;;;;;;;;;18.10;99.90;;;;;;4861206;29;19973;-75
2022/04/15 12:56:55;;;;;;;;;;;18.20;99.90;;;;;;4861489;29;19922;-76
2022/04/15 12:59:22;;;;;;;;;;;18.10;99.90;;;;;;4861297;29;19959;-75
2022/04/15 13:01:49;;;;;;;;;;;18.10;99.90;;;;;;4860732;29;19924;-75
2022/04/15 13:04:16;;;;;;;;;;;18.10;99.90;;;;;;4861333;29;19996;-75
2022/04/15 13:06:43;;;;;;;;;;;18.10;99.90;;;;;;4860120;29;19912;-75
2022/04/15 13:09:10;;;;;;;;;;;18.20;99.90;;;;;;4861020;29;19917;-75
2022/04/15 13:11:37;;;;;;;;;;;18.20;99.90;;;;;;4861275;29;19916;-75
2022/04/15 13:14:04;;;;;;;;;;;18.20;99.90;;;;;;4860678;29;19948;-75
2022/04/15 13:16:31;;;;;;;;;;;18.20;99.90;;;;;;4861235;29;20387;-75
2022/04/15 13:18:58;;;;;;;;;;;18.20;99.90;;;;;;4861153;29;19912;-75
2022/04/15 13:21:25;;;;;;;;;;;18.20;99.90;;;;;;4861059;29;19924;-75
2022/04/15 13:23:52;;;;;;;;;;;18.20;99.90;;;;;;4860457;29;19916;-75
2022/04/15 13:26:18;;;;;;;;;;;18.20;99.90;;;;;;4860967;29;19972;-75
2022/04/15 13:28:45;;;;;;;;;;;18.20;99.90;;;;;;4860351;29;19971;-75
2022/04/15 13:31:12;;;;;;;;;;;18.10;99.90;;;;;;4861154;29;19912;-75
2022/04/15 13:33:40;;;;;;;;;;;18.20;99.90;;;;;;4860783;29;19931;-75
2022/04/15 13:36:07;;;;;;;;;;;18.20;99.90;;;;;;4860706;29;20010;-75
2022/04/15 13:38:33;;;;;;;;;;;18.20;99.90;;;;;;4860649;29;19946;-75
2022/04/15 13:41:00;;;;;;;;;;;18.10;99.90;;;;;;4860732;29;19920;-75
2022/04/15 13:43:27;;;;;;;;;;;18.10;99.90;;;;;;4860691;29;20013;-75
2022/04/15 13:45:54;;;;;;;;;;;18.10;99.90;;;;;;4860477;29;19912;-75
2022/04/15 13:48:21;;;;;;;;;;;18.10;99.90;;;;;;4860767;29;19919;-75
2022/04/15 13:50:48;;;;;;;;;;;18.10;99.90;;;;;;4860698;29;20333;-75
2022/04/15 13:58:45;;;;;;;;;;;18.10;99.90;;;;;;4860565;29;20280;-75
2022/04/15 14:01:23;;;;;;;;;;;18.10;99.90;;;;;;4873316;29;19928;-75
2022/04/15 14:03:51;;;;;;;;;;;18.10;99.90;;;;;;4878509;29;19928;-75
2022/04/15 14:06:18;;;;;;;;;;;18.10;99.90;;;;;;4878605;29;19920;-76
2022/04/15 14:08:44;;;;;;;;;;;18.00;99.90;;;;;;4878971;29;19915;-75
2022/04/15 14:11:12;;;;;;;;;;;18.00;99.90;;;;;;4878873;29;19952;-75
2022/04/15 14:13:43;;;;;;;;;;;18.00;99.90;;;;;;4878604;29;19912;-75
2022/04/15 14:16:10;;;;;;;;;;;18.00;99.90;;;;;;4861996;29;19919;-75
2022/04/15 14:18:37;;;;;;;;;;;18.00;99.90;;;;;;4862021;29;19916;-75
2022/04/15 14:21:05;;;;;;;;;;;18.00;99.90;;;;;;4878439;29;19992;-75
2022/04/15 14:23:31;;;;;;;;;;;17.90;99.90;;;;;;4878509;29;20599;-75
2022/04/15 14:25:58;;;;;;;;;;;17.90;99.90;;;;;;4878682;29;19912;-75
2022/04/15 14:28:25;;;;;;;;;;;17.90;99.90;;;;;;4878326;29;19916;-75
2022/04/15 14:30:52;;;;;;;;;;;17.90;99.90;;;;;;4878535;29;19935;-75
2022/04/15 14:33:19;;;;;;;;;;;17.90;99.90;;;;;;4861436;29;19919;-75
2022/04/15 14:35:47;;;;;;;;;;;17.90;99.90;;;;;;4878398;29;19912;-75